Airfield :
LOGIN :

Register | Disclaimer

   EN    FR    IT 

 










Legend :    VFR   Marginal VFR   IFR   Intensive IFR   Very Intensive IFR
Visi :
Ceiling :
>= 8 km
>= 3000ft
5 to 8 km
1000 to 3000 ft
1500m to 5 km
500 to 1000 ft
800 to 1500m
200 to 500 ft
< 800m
< 200 ft
Symbols :   Thunderstorms  Fog  Heavy snow  Heavy precipitations  Wind > 20 kt
SIGMETs :     Misc.  Thunderstorms  Icing  Turbulence  Mountain Waves  Volcanic Ashes







- Airport Elevation : 141 ft
- IATA code : SKS


EKSP - Srydstrup Vojens

CURRENT METAR :
  • 251950Z 07004KT CAVOK 23/19 Q1019 RMK BKN200

EXPIRED METARs :
  • 251920Z 07004KT CAVOK 24/19 Q1019
  • 251850Z 07005KT CAVOK 25/19 Q1019
  • 251820Z 08005KT CAVOK 26/20 Q1019
  • 251750Z 09005KT CAVOK 27/20 Q1019
  • 251720Z 10004KT 070V140 CAVOK 27/20 Q1019

TAF TAF EKSP
Valid from the 25 at 18:00 until the 26 at 18:00 UTC


251712Z 2518/2618 12006KT 9999 BKN200
BECMG 2602/2605 29010KT
BECMG 2607/2609 30012G25KT
No reported NOTAMs for that airfield.



MET'MAP, your aeronautical weather chart ! - Copyright ORBIFLY December 2007 - Disclaimer

ORBIFLY MET'MAP TEAM :

Programming & Development : Alexandra Zaïnal
Concept & Development : Baudouin d'Aumeries
Co-Development & Prog : Marc-Olivier Méhu
Technical & hardware support : Manuel Goepfert

Contact : metmap@orbifly.com




SOURCES & CREDITS :

   NOAA